Terminal Aerodrome Forecast
Issued by NWS

Home | Current Version | Previous Version | Text Only | Print | Product List | Glossary On
Versions: 1 2 3 4 5 6 7 8 9 10 11 12 13
000
FTUS43 KMPX 060540
TAFRWF
TAF
KRWF 060540Z 0606/0706 23007KT P6SM SKC
     FM061800 25017G23KT P6SM SCT250
     FM070100 30012G20KT P6SM VCSH SCT100 PROB30 0702/0706 -TSRA
      BKN070CB OVC200=

USA.gov is the U.S. government's official web portal to all federal, state and local government web resources and services.